createdAt,value
2024-03-11T00:00:38.785Z,73.40
2024-03-11T00:03:29.082Z,73.45
2024-03-11T00:05:57.410Z,73.16
2024-03-11T00:08:27.018Z,73.36
2024-03-11T00:11:01.361Z,73.43
2024-03-11T00:13:35.783Z,73.43
2024-03-11T00:16:04.607Z,73.40
2024-03-11T00:18:35.164Z,73.29
2024-03-11T00:21:03.165Z,73.26
2024-03-11T00:23:31.281Z,73.33
2024-03-11T00:25:59.153Z,73.24
2024-03-11T00:28:29.219Z,73.26
2024-03-11T00:30:57.073Z,73.17
2024-03-11T00:33:24.953Z,73.12
2024-03-11T00:35:53.085Z,73.15
2024-03-11T00:38:21.009Z,73.12
2024-03-11T00:40:48.909Z,73.20
2024-03-11T00:43:17.258Z,73.18
2024-03-11T00:45:45.280Z,73.12
2024-03-11T00:48:13.381Z,73.25
2024-03-11T00:50:41.648Z,73.15
2024-03-11T00:53:10.016Z,73.12
2024-03-11T00:55:40.149Z,73.06
2024-03-11T00:58:08.060Z,72.98
2024-03-11T01:00:36.112Z,72.97
2024-03-11T01:03:04.652Z,72.88
2024-03-11T01:05:33.539Z,72.82
2024-03-11T01:08:01.920Z,72.84
2024-03-11T01:10:30.068Z,72.72
2024-03-11T01:12:57.960Z,72.66
2024-03-11T01:15:27.090Z,72.67
2024-03-11T01:17:56.898Z,72.61
2024-03-11T01:20:25.558Z,72.60
2024-03-11T01:22:54.096Z,72.54
2024-03-11T01:25:22.312Z,72.33
2024-03-11T01:27:50.850Z,72.31
2024-03-11T01:30:18.802Z,72.24
2024-03-11T01:32:47.990Z,72.24
2024-03-11T01:35:16.223Z,72.32
2024-03-11T01:37:44.539Z,72.13
2024-03-11T01:40:16.686Z,72.06
2024-03-11T01:42:45.240Z,72.01
2024-03-11T01:45:14.602Z,72.04
2024-03-11T01:47:44.603Z,72.04
2024-03-11T01:50:15.211Z,71.94
2024-03-11T01:52:50.416Z,71.88
2024-03-11T01:55:19.930Z,71.93
2024-03-11T01:57:51.810Z,72.03
2024-03-11T02:00:23.509Z,71.97
2024-03-11T02:02:56.081Z,72.02
2024-03-11T02:05:27.543Z,72.00
2024-03-11T02:08:02.925Z,72.07
2024-03-11T02:10:31.389Z,71.99
2024-03-11T02:13:00.904Z,71.91
2024-03-11T02:15:29.393Z,71.85
2024-03-11T02:17:57.779Z,71.90
2024-03-11T02:20:28.114Z,71.87
2024-03-11T02:22:57.520Z,71.81
2024-03-11T02:25:29.940Z,71.69
2024-03-11T02:27:59.909Z,71.75
2024-03-11T02:30:28.227Z,71.93
2024-03-11T02:32:56.714Z,72.04
2024-03-11T02:35:25.218Z,72.02
2024-03-11T02:37:53.442Z,72.00
2024-03-11T02:40:28.087Z,72.11
2024-03-11T02:42:57.880Z,72.15
2024-03-11T02:45:28.059Z,72.29
2024-03-11T02:47:56.288Z,72.19
2024-03-11T02:50:25.338Z,72.28
2024-03-11T02:52:53.301Z,72.21
2024-03-11T02:55:23.668Z,72.23
2024-03-11T02:57:52.609Z,72.17
2024-03-11T03:00:21.396Z,72.18
2024-03-11T03:02:51.650Z,72.19
2024-03-11T03:05:20.423Z,72.05
2024-03-11T03:07:48.516Z,71.90
2024-03-11T03:10:16.365Z,71.80
2024-03-11T03:12:44.344Z,71.79
2024-03-11T03:15:12.518Z,71.79
2024-03-11T03:17:40.996Z,71.80
2024-03-11T03:20:12.150Z,71.71
2024-03-11T03:22:40.757Z,71.87
2024-03-11T03:25:08.836Z,71.74
2024-03-11T03:27:36.970Z,71.82
2024-03-11T03:30:05.942Z,71.81
2024-03-11T03:32:34.713Z,71.87
2024-03-11T03:35:02.846Z,71.77
2024-03-11T03:37:31.115Z,71.76
2024-03-11T03:39:59.112Z,71.65
2024-03-11T03:42:28.456Z,71.69
2024-03-11T03:44:56.736Z,71.50
2024-03-11T03:47:25.164Z,71.40
2024-03-11T03:49:54.283Z,71.33
2024-03-11T03:52:22.454Z,71.41
2024-03-11T03:54:50.331Z,71.43
2024-03-11T03:57:18.492Z,71.45
2024-03-11T03:59:46.705Z,71.35
2024-03-11T04:02:14.900Z,71.40
2024-03-11T04:04:42.862Z,71.27
2024-03-11T04:07:10.856Z,71.36
2024-03-11T04:09:39.899Z,71.37
2024-03-11T04:12:08.412Z,71.22
2024-03-11T04:14:38.023Z,71.32
2024-03-11T04:17:07.518Z,71.17
2024-03-11T04:19:37.245Z,71.31
2024-03-11T04:22:05.514Z,71.36
2024-03-11T04:24:34.219Z,71.22
2024-03-11T04:27:03.625Z,71.26
2024-03-11T04:29:31.767Z,71.32
2024-03-11T04:32:00.143Z,71.27
2024-03-11T04:34:28.063Z,71.32
2024-03-11T04:36:56.092Z,71.35
2024-03-11T04:39:24.186Z,71.31
2024-03-11T04:41:52.376Z,71.44
2024-03-11T04:44:20.852Z,71.35
2024-03-11T04:46:48.808Z,71.19
2024-03-11T04:49:16.715Z,71.21
2024-03-11T04:51:44.906Z,71.25
2024-03-11T04:54:12.822Z,71.31
2024-03-11T04:56:40.717Z,71.22
2024-03-11T04:59:09.794Z,71.35
2024-03-11T05:01:38.090Z,71.41
2024-03-11T05:04:06.944Z,71.32
2024-03-11T05:06:35.051Z,71.28
2024-03-11T05:09:03.430Z,71.35
2024-03-11T05:11:31.803Z,71.38
2024-03-11T05:13:59.967Z,71.25
2024-03-11T05:16:28.039Z,71.41
2024-03-11T05:18:55.923Z,71.37
2024-03-11T05:21:26.245Z,71.50
2024-03-11T05:23:55.064Z,71.40
2024-03-11T05:26:24.109Z,71.46
2024-03-11T05:28:52.022Z,71.59
2024-03-11T05:31:19.920Z,71.53
2024-03-11T05:33:47.839Z,71.59
2024-03-11T05:36:15.810Z,71.56
2024-03-11T05:38:43.766Z,71.60
2024-03-11T05:41:11.769Z,71.54
2024-03-11T05:43:41.288Z,71.57
2024-03-11T05:46:09.131Z,71.68
2024-03-11T05:48:39.978Z,71.67
2024-03-11T05:51:08.336Z,71.58
2024-03-11T05:53:38.425Z,71.61
2024-03-11T05:56:12.206Z,71.60
2024-03-11T05:58:40.573Z,71.49
2024-03-11T06:01:08.530Z,71.50
2024-03-11T06:03:37.795Z,71.38
2024-03-11T06:06:06.110Z,71.38
2024-03-11T06:08:34.064Z,71.28
2024-03-11T06:11:02.102Z,71.32
2024-03-11T06:13:32.596Z,71.34
2024-03-11T06:16:01.536Z,71.29
2024-03-11T06:18:29.737Z,71.13
2024-03-11T06:20:58.149Z,70.97
2024-03-11T06:23:26.576Z,70.86
2024-03-11T06:25:55.657Z,70.88
2024-03-11T06:28:24.454Z,70.87
2024-03-11T06:30:52.394Z,70.96
2024-03-11T06:33:23.587Z,70.97
2024-03-11T06:35:51.695Z,71.05
2024-03-11T06:38:19.791Z,71.01
2024-03-11T06:40:48.198Z,70.97
2024-03-11T06:43:16.662Z,70.73
2024-03-11T06:45:44.743Z,70.82
2024-03-11T06:48:13.479Z,70.70
2024-03-11T06:50:41.541Z,70.70
2024-03-11T06:53:09.749Z,70.64
2024-03-11T06:55:39.802Z,70.64
2024-03-11T06:58:07.935Z,70.65
2024-03-11T07:00:35.864Z,70.53
2024-03-11T07:03:03.831Z,70.39
2024-03-11T07:05:34.023Z,70.33
2024-03-11T07:08:08.189Z,70.17
2024-03-11T07:10:36.644Z,70.18
2024-03-11T07:13:05.359Z,70.01
2024-03-11T07:15:33.366Z,69.98
2024-03-11T07:18:01.911Z,69.85
2024-03-11T07:20:29.875Z,69.84
2024-03-11T07:22:58.142Z,69.75
2024-03-11T07:25:28.563Z,69.60
2024-03-11T07:27:56.502Z,69.65
2024-03-11T07:30:24.688Z,69.16
2024-03-11T07:33:16.219Z,68.85
2024-03-11T07:35:44.735Z,68.81
2024-03-11T07:38:13.077Z,68.90
2024-03-11T07:40:43.551Z,68.66
2024-03-11T07:43:13.323Z,68.72
2024-03-11T07:45:41.807Z,68.32
2024-03-11T07:48:16.425Z,68.04
2024-03-11T07:50:44.365Z,68.09
2024-03-11T07:53:15.267Z,68.10
2024-03-11T07:55:43.798Z,67.74
2024-03-11T07:58:12.783Z,67.56
2024-03-11T08:00:43.802Z,67.56
2024-03-11T08:03:12.224Z,67.37
2024-03-11T08:05:40.188Z,67.39
2024-03-11T08:08:11.285Z,67.13
2024-03-11T08:10:41.852Z,66.95
2024-03-11T08:13:12.116Z,66.79
2024-03-11T08:15:40.591Z,66.59
2024-03-11T08:18:10.388Z,66.64
2024-03-11T08:20:38.719Z,66.58
2024-03-11T08:23:07.203Z,66.54
2024-03-11T08:25:36.476Z,66.51
2024-03-11T08:28:04.706Z,66.51
2024-03-11T08:30:32.780Z,66.54
2024-03-11T08:33:01.797Z,66.48
2024-03-11T08:35:30.475Z,66.22
2024-03-11T08:37:58.837Z,66.28
2024-03-11T08:40:26.753Z,66.27
2024-03-11T08:42:57.846Z,66.20
2024-03-11T08:45:29.842Z,66.08
2024-03-11T08:47:59.078Z,66.21
2024-03-11T08:50:27.972Z,66.17
2024-03-11T08:52:56.463Z,66.12
2024-03-11T08:55:24.665Z,66.06
2024-03-11T08:57:54.625Z,66.02
2024-03-11T09:00:28.649Z,66.11
2024-03-11T09:02:56.697Z,66.05
2024-03-11T09:05:24.798Z,65.81
2024-03-11T09:07:52.960Z,65.54
2024-03-11T09:10:21.326Z,65.60
2024-03-11T09:12:50.993Z,65.39
2024-03-11T09:15:20.781Z,65.49
2024-03-11T09:17:52.361Z,65.66
2024-03-11T09:20:23.539Z,65.36
2024-03-11T09:22:53.432Z,64.53
2024-03-11T09:25:26.462Z,64.33
2024-03-11T09:28:02.628Z,64.48
2024-03-11T09:30:34.665Z,64.28
2024-03-11T09:33:03.281Z,64.08
2024-03-11T09:35:31.401Z,63.62
2024-03-11T09:37:59.476Z,63.58
2024-03-11T09:40:31.192Z,63.03
2024-03-11T09:43:03.657Z,61.96
2024-03-11T09:45:36.574Z,61.23
2024-03-11T09:48:06.715Z,60.75
2024-03-11T09:50:36.955Z,60.37
2024-03-11T09:53:08.910Z,59.80
2024-03-11T09:55:38.395Z,59.74
2024-03-11T09:58:11.882Z,59.50
2024-03-11T10:00:50.433Z,58.55
2024-03-11T10:03:29.060Z,59.05
2024-03-11T10:05:59.757Z,58.96
2024-03-11T10:08:32.745Z,58.46
2024-03-11T10:11:16.031Z,57.87
2024-03-11T10:13:44.370Z,57.99
2024-03-11T10:16:19.054Z,57.47
2024-03-11T10:18:54.195Z,56.88
2024-03-11T10:21:22.542Z,56.61
2024-03-11T10:23:52.252Z,56.38
2024-03-11T10:26:20.518Z,56.23
2024-03-11T10:28:50.830Z,56.38
2024-03-11T10:31:29.055Z,56.26
2024-03-11T10:34:25.311Z,55.92
2024-03-11T10:36:57.943Z,55.74
2024-03-11T10:39:38.722Z,56.02
2024-03-11T10:42:16.732Z,55.92
2024-03-11T10:44:47.181Z,55.72
2024-03-11T10:47:23.507Z,56.17
2024-03-11T10:49:55.186Z,55.98
2024-03-11T10:52:24.892Z,55.68
2024-03-11T10:57:40.341Z,56.02
2024-03-11T11:00:18.059Z,55.99
2024-03-11T11:02:51.892Z,55.50
2024-03-11T11:05:25.760Z,55.22
2024-03-11T11:07:57.658Z,55.35
2024-03-11T11:10:31.109Z,55.48
2024-03-11T11:13:02.754Z,55.54
2024-03-11T11:15:31.064Z,55.66
2024-03-11T11:18:00.459Z,55.33
2024-03-11T11:20:32.155Z,55.12
2024-03-11T11:23:01.443Z,54.61
2024-03-11T11:25:43.333Z,54.29
2024-03-11T11:28:15.020Z,54.02
2024-03-11T11:30:46.440Z,54.67
2024-03-11T11:34:06.233Z,55.02
2024-03-11T11:36:41.584Z,55.02
2024-03-11T11:39:16.005Z,54.72
2024-03-11T11:41:53.456Z,54.85
2024-03-11T11:44:26.762Z,54.69
2024-03-11T11:46:56.470Z,54.65
2024-03-11T11:49:28.884Z,54.91
2024-03-11T11:51:58.064Z,54.89
2024-03-11T11:54:36.448Z,55.10
2024-03-11T11:57:06.499Z,55.18
2024-03-11T11:59:34.709Z,55.38
2024-03-11T12:02:02.648Z,55.44
2024-03-11T12:04:30.654Z,55.24
2024-03-11T12:06:59.740Z,55.33
2024-03-11T12:09:27.927Z,55.48
2024-03-11T12:11:59.834Z,55.23
2024-03-11T12:14:27.925Z,55.33
2024-03-11T12:17:06.020Z,54.81
2024-03-11T12:19:35.277Z,55.13
2024-03-11T12:22:03.504Z,54.86
2024-03-11T12:24:32.987Z,54.69
2024-03-11T12:27:00.997Z,54.52
2024-03-11T12:29:29.469Z,54.47
2024-03-11T12:31:58.163Z,54.05
2024-03-11T12:34:26.399Z,53.82
2024-03-11T12:36:56.750Z,54.44
2024-03-11T12:39:28.861Z,54.21
2024-03-11T12:41:58.694Z,54.02
2024-03-11T12:44:28.060Z,54.06
2024-03-11T12:46:57.853Z,53.42
2024-03-11T12:49:29.538Z,53.38
2024-03-11T12:52:13.919Z,53.10
2024-03-11T12:54:43.129Z,53.31
2024-03-11T12:57:12.437Z,53.42
2024-03-11T12:59:46.948Z,52.99
2024-03-11T13:02:21.858Z,53.20
2024-03-11T13:04:52.111Z,53.52
2024-03-11T13:07:21.278Z,53.57
2024-03-11T13:09:54.939Z,53.34
2024-03-11T13:12:23.554Z,53.13
2024-03-11T13:14:53.005Z,53.20
2024-03-11T13:17:23.949Z,53.00
2024-03-11T13:19:58.388Z,52.92
2024-03-11T13:22:31.534Z,52.63
2024-03-11T13:25:09.896Z,52.11
2024-03-11T13:27:37.994Z,52.14
2024-03-11T13:30:14.453Z,51.79
2024-03-11T13:32:42.733Z,51.13
2024-03-11T13:35:10.785Z,50.66
2024-03-11T13:37:39.683Z,50.59
2024-03-11T13:40:08.916Z,50.10
2024-03-11T13:42:37.813Z,49.95
2024-03-11T13:45:06.909Z,49.33
2024-03-11T13:47:34.889Z,49.44
2024-03-11T13:50:02.836Z,48.97
2024-03-11T13:52:31.555Z,48.73
2024-03-11T13:55:00.882Z,48.50
2024-03-11T13:57:28.896Z,48.53
2024-03-11T13:59:56.793Z,48.61
2024-03-11T14:02:25.623Z,48.75
2024-03-11T14:04:54.101Z,48.87
2024-03-11T14:07:24.002Z,48.88
2024-03-11T14:09:52.069Z,49.03
2024-03-11T14:12:20.101Z,49.14
2024-03-11T14:14:48.392Z,49.39
2024-03-11T14:17:16.548Z,49.41
2024-03-11T14:19:44.439Z,49.53
2024-03-11T14:22:12.306Z,49.66
2024-03-11T14:24:40.434Z,49.56
2024-03-11T14:27:08.340Z,49.59
2024-03-11T14:29:36.469Z,49.08
2024-03-11T14:32:11.197Z,48.83
2024-03-11T14:34:40.022Z,48.51
2024-03-11T14:37:08.320Z,48.19
2024-03-11T14:39:36.594Z,47.72
2024-03-11T14:42:04.680Z,45.91
2024-03-11T14:44:32.913Z,45.69
2024-03-11T14:47:01.024Z,45.60
2024-03-11T14:49:34.748Z,45.82
2024-03-11T14:52:04.611Z,45.46
2024-03-11T14:54:33.007Z,45.22
2024-03-11T14:57:02.632Z,45.22
2024-03-11T14:59:32.724Z,44.87
2024-03-11T15:02:02.587Z,44.05
2024-03-11T15:04:32.520Z,43.26
2024-03-11T15:07:01.199Z,42.38
2024-03-11T15:09:29.305Z,41.92
2024-03-11T15:11:58.887Z,41.65
2024-03-11T15:14:26.865Z,40.69
2024-03-11T15:17:01.628Z,40.57
2024-03-11T15:19:29.969Z,40.74
2024-03-11T15:21:58.367Z,39.98
2024-03-11T15:24:26.542Z,39.98
2024-03-11T15:26:54.799Z,40.13
2024-03-11T15:29:23.153Z,39.74
2024-03-11T15:31:51.890Z,39.14
2024-03-11T15:34:20.340Z,39.60
2024-03-11T15:36:49.051Z,39.63
2024-03-11T15:39:20.777Z,39.92
2024-03-11T15:41:50.509Z,39.84
2024-03-11T15:44:18.447Z,40.57
2024-03-11T15:46:46.534Z,41.59
2024-03-11T15:49:14.776Z,42.54
2024-03-11T15:51:43.236Z,43.34
2024-03-11T15:54:11.435Z,43.97
2024-03-11T15:56:39.393Z,45.11
2024-03-11T15:59:08.730Z,45.52
2024-03-11T16:01:37.567Z,46.24
2024-03-11T16:04:06.384Z,46.65
2024-03-11T16:06:34.396Z,47.19
2024-03-11T16:09:03.518Z,47.60
2024-03-11T16:11:32.559Z,47.90
2024-03-11T16:14:00.647Z,48.42
2024-03-11T16:16:29.190Z,48.82
2024-03-11T16:18:57.783Z,49.42
2024-03-11T16:21:26.276Z,50.01
2024-03-11T16:23:54.285Z,50.50
2024-03-11T16:26:22.351Z,50.98
2024-03-11T16:28:50.952Z,51.62
2024-03-11T16:31:21.934Z,51.99
2024-03-11T16:33:50.849Z,52.45
2024-03-11T16:36:18.910Z,52.86
2024-03-11T16:38:52.650Z,53.26
2024-03-11T16:41:21.165Z,53.57
2024-03-11T16:43:50.102Z,54.03
2024-03-11T16:46:18.043Z,54.51
2024-03-11T16:48:47.241Z,55.08
2024-03-11T16:51:18.564Z,55.23
2024-03-11T16:53:48.128Z,55.69
2024-03-11T16:56:16.775Z,56.06
2024-03-11T16:58:44.768Z,56.72
2024-03-11T17:01:16.106Z,56.91
2024-03-11T17:03:46.613Z,57.24
2024-03-11T17:06:15.626Z,57.47
2024-03-11T17:08:44.928Z,57.77
2024-03-11T17:11:13.797Z,57.84
2024-03-11T17:13:41.873Z,58.11
2024-03-11T17:16:10.191Z,58.48
2024-03-11T17:18:38.713Z,58.71
2024-03-11T17:21:11.373Z,58.71
2024-03-11T17:23:39.929Z,58.98
2024-03-11T17:26:09.851Z,59.07
2024-03-11T17:28:37.954Z,59.42
2024-03-11T17:31:06.315Z,59.48
2024-03-11T17:33:36.548Z,59.78
2024-03-11T17:36:05.869Z,59.90
2024-03-11T17:38:34.366Z,60.26
2024-03-11T17:41:02.437Z,60.35
2024-03-11T17:43:30.696Z,60.49
2024-03-11T17:46:00.351Z,60.65
2024-03-11T17:48:29.517Z,60.86
2024-03-11T17:50:59.060Z,61.12
2024-03-11T17:53:27.024Z,61.10
2024-03-11T17:55:56.127Z,61.32
2024-03-11T17:58:25.677Z,61.40
2024-03-11T18:00:54.558Z,61.44
2024-03-11T18:03:22.833Z,61.75
2024-03-11T18:05:52.570Z,62.04
2024-03-11T18:08:21.548Z,62.13
2024-03-11T18:10:50.637Z,62.05
2024-03-11T18:13:18.564Z,61.86
2024-03-11T18:15:47.547Z,62.14
2024-03-11T18:18:21.673Z,62.09
2024-03-11T18:20:52.842Z,62.33
2024-03-11T18:23:20.902Z,62.17
2024-03-11T18:25:53.184Z,62.24
2024-03-11T18:28:23.595Z,62.28
2024-03-11T18:30:52.305Z,62.52
2024-03-11T18:33:20.893Z,62.64
2024-03-11T18:35:49.506Z,62.71
2024-03-11T18:38:17.799Z,62.75
2024-03-11T18:40:48.290Z,62.82
2024-03-11T18:43:17.428Z,62.75
2024-03-11T18:45:49.095Z,62.89
2024-03-11T18:48:19.819Z,62.92
2024-03-11T18:50:48.684Z,63.01
2024-03-11T18:53:16.667Z,63.09
2024-03-11T18:55:45.313Z,63.31
2024-03-11T18:58:13.280Z,63.64
2024-03-11T19:00:42.151Z,63.68
2024-03-11T19:03:11.645Z,64.07
2024-03-11T19:05:39.651Z,64.27
2024-03-11T19:08:08.837Z,64.49
2024-03-11T19:10:36.771Z,64.74
2024-03-11T19:13:05.805Z,64.77
2024-03-11T19:15:34.732Z,64.94
2024-03-11T19:18:03.367Z,64.95
2024-03-11T19:20:32.258Z,65.05
2024-03-11T19:23:00.321Z,65.54
2024-03-11T19:25:29.864Z,65.52
2024-03-11T19:28:00.291Z,65.77
2024-03-11T19:30:29.908Z,65.94
2024-03-11T19:33:01.507Z,66.33
2024-03-11T19:35:30.340Z,66.47
2024-03-11T19:38:15.541Z,66.53
2024-03-11T19:41:04.251Z,66.74
2024-03-11T19:44:13.702Z,66.76
2024-03-11T19:47:12.123Z,66.80
2024-03-11T19:50:23.027Z,66.69
2024-03-11T19:53:19.268Z,66.83
2024-03-11T19:56:12.506Z,66.98
2024-03-11T19:59:18.221Z,67.16
2024-03-11T20:02:15.288Z,67.27
2024-03-11T20:05:22.210Z,67.18
2024-03-11T20:08:22.303Z,67.17
2024-03-11T20:11:27.902Z,67.18
2024-03-11T20:14:10.830Z,67.30
2024-03-11T20:16:53.860Z,67.33
2024-03-11T20:19:45.180Z,67.29
2024-03-11T20:22:42.483Z,67.32
2024-03-11T20:25:42.657Z,67.19
2024-03-11T20:28:33.670Z,67.47
2024-03-11T20:31:03.808Z,67.55
2024-03-11T20:33:32.602Z,67.60
2024-03-11T20:36:01.017Z,67.91
2024-03-11T20:38:29.080Z,67.87
2024-03-11T20:40:57.772Z,67.89
2024-03-11T20:43:25.708Z,67.88
2024-03-11T20:45:54.721Z,67.78
2024-03-11T20:48:22.837Z,67.53
2024-03-11T20:50:50.951Z,67.69
2024-03-11T20:53:20.357Z,67.70
2024-03-11T20:55:49.188Z,68.01
2024-03-11T20:58:17.196Z,68.01
2024-03-11T21:00:45.830Z,68.23
2024-03-11T21:03:16.636Z,68.31
2024-03-11T21:05:45.206Z,68.31
2024-03-11T21:08:13.247Z,68.49
2024-03-11T21:10:43.189Z,68.61
2024-03-11T21:13:11.563Z,69.01
2024-03-11T21:15:41.255Z,68.90
2024-03-11T21:18:13.474Z,68.90
2024-03-11T21:20:41.427Z,68.99
2024-03-11T21:23:09.562Z,69.16
2024-03-11T21:25:53.041Z,69.20
2024-03-11T21:28:22.426Z,69.26
2024-03-11T21:30:54.268Z,69.14
2024-03-11T21:33:27.175Z,69.19
2024-03-11T21:35:55.675Z,69.20
2024-03-11T21:38:29.329Z,69.47
2024-03-11T21:40:59.546Z,69.69
2024-03-11T21:43:28.043Z,69.53
2024-03-11T21:45:56.032Z,69.67
2024-03-11T21:48:24.300Z,69.53
2024-03-11T21:50:52.555Z,69.78
2024-03-11T21:53:21.485Z,69.93
2024-03-11T21:55:49.949Z,70.11
2024-03-11T21:58:17.967Z,70.10
2024-03-11T22:00:45.991Z,69.91
2024-03-11T22:03:13.929Z,70.09
2024-03-11T22:05:42.328Z,70.08
2024-03-11T22:08:11.367Z,70.01
2024-03-11T22:10:39.290Z,69.92
2024-03-11T22:13:07.751Z,70.26
2024-03-11T22:15:36.286Z,70.52
2024-03-11T22:18:05.519Z,70.70
2024-03-11T22:20:33.589Z,70.93
2024-03-11T22:23:01.530Z,71.08
2024-03-11T22:25:29.513Z,71.20
2024-03-11T22:27:57.816Z,71.14
2024-03-11T22:30:25.899Z,71.17
2024-03-11T22:32:53.969Z,70.93
2024-03-11T22:35:22.202Z,70.81
2024-03-11T22:37:50.272Z,70.82
2024-03-11T22:40:18.447Z,70.92
2024-03-11T22:42:48.459Z,71.05
2024-03-11T22:45:16.911Z,71.51
2024-03-11T22:47:45.284Z,71.73
2024-03-11T22:50:13.350Z,72.12
2024-03-11T22:52:41.303Z,72.07
2024-03-11T22:55:09.784Z,72.24
2024-03-11T22:57:38.272Z,72.67
2024-03-11T23:00:26.434Z,72.91
2024-03-11T23:02:55.223Z,72.57
2024-03-11T23:05:23.200Z,72.85
2024-03-11T23:07:51.239Z,73.15
2024-03-11T23:10:19.639Z,73.24
2024-03-11T23:12:50.396Z,72.80
2024-03-11T23:15:23.830Z,72.43
2024-03-11T23:17:52.828Z,72.42
2024-03-11T23:20:22.805Z,72.22
2024-03-11T23:22:51.487Z,71.94
2024-03-11T23:25:22.978Z,72.15
2024-03-11T23:27:58.713Z,72.36
2024-03-11T23:30:29.285Z,72.35
2024-03-11T23:32:57.684Z,72.48
2024-03-11T23:35:29.183Z,72.45
2024-03-11T23:37:59.298Z,72.28
2024-03-11T23:40:27.387Z,72.08
2024-03-11T23:42:56.762Z,72.08
2024-03-11T23:45:24.776Z,72.01
2024-03-11T23:47:53.343Z,72.11
2024-03-11T23:50:22.390Z,72.24
2024-03-11T23:52:51.645Z,72.08
2024-03-11T23:55:21.248Z,71.84
2024-03-11T23:57:49.529Z,71.86
